sensor_id;sensor_type;location;lat;lon;timestamp;temperature;humidity
50013;DHT22;35901;48.694;9.476;2023-06-10T00:01:58;13.50;99.90
50013;DHT22;35901;48.694;9.476;2023-06-10T00:04:26;13.40;99.90
50013;DHT22;35901;48.694;9.476;2023-06-10T00:06:52;13.30;99.90
50013;DHT22;35901;48.694;9.476;2023-06-10T00:09:19;13.20;99.90
50013;DHT22;35901;48.694;9.476;2023-06-10T00:11:46;13.20;99.90
50013;DHT22;35901;48.694;9.476;2023-06-10T00:14:12;13.10;99.90
50013;DHT22;35901;48.694;9.476;2023-06-10T00:16:38;13.00;99.90
50013;DHT22;35901;48.694;9.476;2023-06-10T00:19:04;13.00;99.90
50013;DHT22;35901;48.694;9.476;2023-06-10T00:21:34;12.90;99.90
50013;DHT22;35901;48.694;9.476;2023-06-10T00:24:09;12.80;99.90
50013;DHT22;35901;48.694;9.476;2023-06-10T00:26:38;12.60;99.90
50013;DHT22;35901;48.694;9.476;2023-06-10T00:29:04;12.50;99.90
50013;DHT22;35901;48.694;9.476;2023-06-10T00:31:31;12.40;99.90
50013;DHT22;35901;48.694;9.476;2023-06-10T00:33:57;12.40;99.90
50013;DHT22;35901;48.694;9.476;2023-06-10T00:36:24;12.30;99.90
50013;DHT22;35901;48.694;9.476;2023-06-10T00:38:50;12.30;99.90
50013;DHT22;35901;48.694;9.476;2023-06-10T00:41:15;12.30;99.90
50013;DHT22;35901;48.694;9.476;2023-06-10T00:43:41;12.30;99.90
50013;DHT22;35901;48.694;9.476;2023-06-10T00:46:07;12.30;99.90
50013;DHT22;35901;48.694;9.476;2023-06-10T00:48:33;12.30;99.90
50013;DHT22;35901;48.694;9.476;2023-06-10T00:50:59;12.40;99.90
50013;DHT22;35901;48.694;9.476;2023-06-10T00:53:26;12.90;99.90
50013;DHT22;35901;48.694;9.476;2023-06-10T00:55:53;13.40;99.90
50013;DHT22;35901;48.694;9.476;2023-06-10T00:58:19;13.70;99.90
50013;DHT22;35901;48.694;9.476;2023-06-10T01:00:45;14.00;99.90
50013;DHT22;35901;48.694;9.476;2023-06-10T01:03:12;14.00;99.90
50013;DHT22;35901;48.694;9.476;2023-06-10T01:05:38;14.10;99.90
50013;DHT22;35901;48.694;9.476;2023-06-10T01:08:15;13.90;99.90
50013;DHT22;35901;48.694;9.476;2023-06-10T01:10:57;13.70;99.90
50013;DHT22;35901;48.694;9.476;2023-06-10T01:13:25;13.40;99.90
50013;DHT22;35901;48.694;9.476;2023-06-10T01:15:55;13.20;99.90
50013;DHT22;35901;48.694;9.476;2023-06-10T01:18:21;13.00;99.90
50013;DHT22;35901;48.694;9.476;2023-06-10T01:20:47;12.80;99.90
50013;DHT22;35901;48.694;9.476;2023-06-10T01:23:14;12.70;99.90
50013;DHT22;35901;48.694;9.476;2023-06-10T01:25:45;12.60;99.90
50013;DHT22;35901;48.694;9.476;2023-06-10T01:31:06;12.50;99.90
50013;DHT22;35901;48.694;9.476;2023-06-10T01:33:41;12.60;99.90
50013;DHT22;35901;48.694;9.476;2023-06-10T01:36:08;12.70;99.90
50013;DHT22;35901;48.694;9.476;2023-06-10T01:38:42;12.60;99.90
50013;DHT22;35901;48.694;9.476;2023-06-10T01:41:10;12.40;99.90
50013;DHT22;35901;48.694;9.476;2023-06-10T01:43:38;12.20;99.90
50013;DHT22;35901;48.694;9.476;2023-06-10T01:46:04;12.10;99.90
50013;DHT22;35901;48.694;9.476;2023-06-10T01:48:30;12.10;99.90
50013;DHT22;35901;48.694;9.476;2023-06-10T01:50:56;12.20;99.90
50013;DHT22;35901;48.694;9.476;2023-06-10T01:53:22;12.20;99.90
50013;DHT22;35901;48.694;9.476;2023-06-10T01:55:48;12.20;99.90
50013;DHT22;35901;48.694;9.476;2023-06-10T01:58:14;12.10;99.90
50013;DHT22;35901;48.694;9.476;2023-06-10T02:00:40;12.00;99.90
50013;DHT22;35901;48.694;9.476;2023-06-10T02:03:07;11.90;99.90
50013;DHT22;35901;48.694;9.476;2023-06-10T02:05:33;11.80;99.90
50013;DHT22;35901;48.694;9.476;2023-06-10T02:07:59;11.80;99.90
50013;DHT22;35901;48.694;9.476;2023-06-10T02:10:24;11.90;99.90
50013;DHT22;35901;48.694;9.476;2023-06-10T02:12:50;12.00;99.90
50013;DHT22;35901;48.694;9.476;2023-06-10T02:15:16;12.10;99.90
50013;DHT22;35901;48.694;9.476;2023-06-10T02:17:42;12.20;99.90
50013;DHT22;35901;48.694;9.476;2023-06-10T02:20:08;12.40;99.90
50013;DHT22;35901;48.694;9.476;2023-06-10T02:22:37;12.80;99.90
50013;DHT22;35901;48.694;9.476;2023-06-10T02:25:03;12.90;99.90
50013;DHT22;35901;48.694;9.476;2023-06-10T02:27:30;13.10;99.90
50013;DHT22;35901;48.694;9.476;2023-06-10T02:29:57;13.30;99.90
50013;DHT22;35901;48.694;9.476;2023-06-10T02:32:23;13.40;99.90
50013;DHT22;35901;48.694;9.476;2023-06-10T02:34:50;13.50;99.90
50013;DHT22;35901;48.694;9.476;2023-06-10T02:37:17;13.70;99.90
50013;DHT22;35901;48.694;9.476;2023-06-10T02:39:43;13.70;99.90
50013;DHT22;35901;48.694;9.476;2023-06-10T02:42:10;13.50;99.90
50013;DHT22;35901;48.694;9.476;2023-06-10T02:44:36;13.30;99.90
50013;DHT22;35901;48.694;9.476;2023-06-10T02:47:03;13.20;99.90
50013;DHT22;35901;48.694;9.476;2023-06-10T02:49:29;13.00;99.90
50013;DHT22;35901;48.694;9.476;2023-06-10T02:51:56;12.90;99.90
50013;DHT22;35901;48.694;9.476;2023-06-10T02:54:24;12.80;99.90
50013;DHT22;35901;48.694;9.476;2023-06-10T02:56:53;12.80;99.90
50013;DHT22;35901;48.694;9.476;2023-06-10T02:59:23;12.70;99.90
50013;DHT22;35901;48.694;9.476;2023-06-10T03:01:49;12.70;99.90
50013;DHT22;35901;48.694;9.476;2023-06-10T03:04:14;12.60;99.90
50013;DHT22;35901;48.694;9.476;2023-06-10T03:06:46;12.50;99.90
50013;DHT22;35901;48.694;9.476;2023-06-10T03:09:21;12.50;99.90
50013;DHT22;35901;48.694;9.476;2023-06-10T03:11:50;12.50;99.90
50013;DHT22;35901;48.694;9.476;2023-06-10T03:14:15;12.50;99.90
50013;DHT22;35901;48.694;9.476;2023-06-10T03:16:41;12.40;99.90
50013;DHT22;35901;48.694;9.476;2023-06-10T03:19:08;12.30;99.90
50013;DHT22;35901;48.694;9.476;2023-06-10T03:21:35;12.20;99.90
50013;DHT22;35901;48.694;9.476;2023-06-10T03:24:04;12.10;99.90
50013;DHT22;35901;48.694;9.476;2023-06-10T03:26:31;12.00;99.90
50013;DHT22;35901;48.694;9.476;2023-06-10T03:28:58;12.00;99.90
50013;DHT22;35901;48.694;9.476;2023-06-10T03:31:24;12.00;99.90
50013;DHT22;35901;48.694;9.476;2023-06-10T03:33:51;12.00;99.90
50013;DHT22;35901;48.694;9.476;2023-06-10T03:36:17;12.10;99.90
50013;DHT22;35901;48.694;9.476;2023-06-10T03:38:43;12.10;99.90
50013;DHT22;35901;48.694;9.476;2023-06-10T03:41:09;12.10;99.90
50013;DHT22;35901;48.694;9.476;2023-06-10T03:43:37;12.00;99.90
50013;DHT22;35901;48.694;9.476;2023-06-10T03:46:04;11.80;99.90
50013;DHT22;35901;48.694;9.476;2023-06-10T03:48:32;11.60;99.90
50013;DHT22;35901;48.694;9.476;2023-06-10T03:50:58;11.40;99.90
50013;DHT22;35901;48.694;9.476;2023-06-10T03:53:24;11.40;99.90
50013;DHT22;35901;48.694;9.476;2023-06-10T03:55:50;11.30;99.90
50013;DHT22;35901;48.694;9.476;2023-06-10T03:58:19;11.40;99.90
50013;DHT22;35901;48.694;9.476;2023-06-10T04:00:45;11.40;99.90
50013;DHT22;35901;48.694;9.476;2023-06-10T04:03:11;11.40;99.90
50013;DHT22;35901;48.694;9.476;2023-06-10T04:05:43;11.40;99.90
50013;DHT22;35901;48.694;9.476;2023-06-10T04:08:09;11.40;99.90
50013;DHT22;35901;48.694;9.476;2023-06-10T04:10:35;11.40;99.90
50013;DHT22;35901;48.694;9.476;2023-06-10T04:13:01;11.90;99.90
50013;DHT22;35901;48.694;9.476;2023-06-10T04:15:31;12.70;99.90
50013;DHT22;35901;48.694;9.476;2023-06-10T04:18:04;13.50;99.90
50013;DHT22;35901;48.694;9.476;2023-06-10T04:20:31;14.10;99.90
50013;DHT22;35901;48.694;9.476;2023-06-10T04:22:56;14.60;99.90
50013;DHT22;35901;48.694;9.476;2023-06-10T04:25:22;15.10;99.90
50013;DHT22;35901;48.694;9.476;2023-06-10T04:27:49;15.60;99.90
50013;DHT22;35901;48.694;9.476;2023-06-10T04:30:16;16.20;99.90
50013;DHT22;35901;48.694;9.476;2023-06-10T04:32:42;16.70;99.90
50013;DHT22;35901;48.694;9.476;2023-06-10T04:35:14;17.10;99.90
50013;DHT22;35901;48.694;9.476;2023-06-10T04:37:40;17.50;99.90
50013;DHT22;35901;48.694;9.476;2023-06-10T04:40:08;17.70;99.90
50013;DHT22;35901;48.694;9.476;2023-06-10T04:42:34;18.00;99.90
50013;DHT22;35901;48.694;9.476;2023-06-10T04:45:00;18.30;99.90
50013;DHT22;35901;48.694;9.476;2023-06-10T04:47:26;18.40;99.90
50013;DHT22;35901;48.694;9.476;2023-06-10T04:49:52;18.70;99.90
50013;DHT22;35901;48.694;9.476;2023-06-10T04:52:18;19.00;99.90
50013;DHT22;35901;48.694;9.476;2023-06-10T04:54:44;19.30;99.90
50013;DHT22;35901;48.694;9.476;2023-06-10T04:57:09;19.60;99.90
50013;DHT22;35901;48.694;9.476;2023-06-10T04:59:37;20.10;99.90
50013;DHT22;35901;48.694;9.476;2023-06-10T05:02:06;20.40;99.90
50013;DHT22;35901;48.694;9.476;2023-06-10T05:04:32;20.50;99.90
50013;DHT22;35901;48.694;9.476;2023-06-10T05:06:58;20.80;99.90
50013;DHT22;35901;48.694;9.476;2023-06-10T05:09:24;21.00;99.90
50013;DHT22;35901;48.694;9.476;2023-06-10T05:11:50;21.10;99.90
50013;DHT22;35901;48.694;9.476;2023-06-10T05:14:16;21.40;99.90
50013;DHT22;35901;48.694;9.476;2023-06-10T05:16:43;21.60;99.90
50013;DHT22;35901;48.694;9.476;2023-06-10T05:19:08;21.70;99.90
50013;DHT22;35901;48.694;9.476;2023-06-10T05:21:34;22.10;99.90
50013;DHT22;35901;48.694;9.476;2023-06-10T05:24:00;22.40;99.90
50013;DHT22;35901;48.694;9.476;2023-06-10T05:26:25;22.60;99.90
50013;DHT22;35901;48.694;9.476;2023-06-10T05:28:51;22.90;99.90
50013;DHT22;35901;48.694;9.476;2023-06-10T05:31:18;23.20;99.40
50013;DHT22;35901;48.694;9.476;2023-06-10T05:33:43;23.30;99.00
50013;DHT22;35901;48.694;9.476;2023-06-10T05:36:09;23.40;98.70
50013;DHT22;35901;48.694;9.476;2023-06-10T05:38:35;23.40;98.50
50013;DHT22;35901;48.694;9.476;2023-06-10T05:41:00;23.30;98.50
50013;DHT22;35901;48.694;9.476;2023-06-10T05:43:26;23.10;98.40
50013;DHT22;35901;48.694;9.476;2023-06-10T05:45:52;23.10;98.00
50013;DHT22;35901;48.694;9.476;2023-06-10T05:48:18;23.30;97.60
50013;DHT22;35901;48.694;9.476;2023-06-10T05:50:47;23.50;97.30
50013;DHT22;35901;48.694;9.476;2023-06-10T05:53:16;23.60;97.30
50013;DHT22;35901;48.694;9.476;2023-06-10T05:55:46;23.70;97.30
50013;DHT22;35901;48.694;9.476;2023-06-10T05:58:14;23.80;96.90
50013;DHT22;35901;48.694;9.476;2023-06-10T06:00:40;24.10;96.50
50013;DHT22;35901;48.694;9.476;2023-06-10T06:03:09;24.40;95.90
50013;DHT22;35901;48.694;9.476;2023-06-10T06:05:36;24.80;95.40
50013;DHT22;35901;48.694;9.476;2023-06-10T06:08:03;24.90;95.10
50013;DHT22;35901;48.694;9.476;2023-06-10T06:10:29;25.00;94.50
50013;DHT22;35901;48.694;9.476;2023-06-10T06:12:55;25.20;93.80
50013;DHT22;35901;48.694;9.476;2023-06-10T06:15:21;25.50;93.30
50013;DHT22;35901;48.694;9.476;2023-06-10T06:17:46;25.60;93.10
50013;DHT22;35901;48.694;9.476;2023-06-10T06:20:12;25.80;92.80
50013;DHT22;35901;48.694;9.476;2023-06-10T06:22:38;26.00;92.30
50013;DHT22;35901;48.694;9.476;2023-06-10T06:25:04;26.20;91.90
50013;DHT22;35901;48.694;9.476;2023-06-10T06:27:31;26.30;91.40
50013;DHT22;35901;48.694;9.476;2023-06-10T06:29:56;26.40;91.60
50013;DHT22;35901;48.694;9.476;2023-06-10T06:32:22;26.60;91.40
50013;DHT22;35901;48.694;9.476;2023-06-10T06:34:50;26.50;91.30
50013;DHT22;35901;48.694;9.476;2023-06-10T06:37:21;26.20;91.10
50013;DHT22;35901;48.694;9.476;2023-06-10T06:39:48;25.80;91.00
50013;DHT22;35901;48.694;9.476;2023-06-10T06:42:14;25.80;91.40
50013;DHT22;35901;48.694;9.476;2023-06-10T06:44:49;25.90;90.80
50013;DHT22;35901;48.694;9.476;2023-06-10T06:47:15;25.90;90.60
50013;DHT22;35901;48.694;9.476;2023-06-10T06:49:48;26.00;90.60
50013;DHT22;35901;48.694;9.476;2023-06-10T06:52:15;26.20;90.60
50013;DHT22;35901;48.694;9.476;2023-06-10T06:54:40;26.60;91.10
50013;DHT22;35901;48.694;9.476;2023-06-10T06:57:06;26.50;90.60
50013;DHT22;35901;48.694;9.476;2023-06-10T06:59:32;26.50;90.70
50013;DHT22;35901;48.694;9.476;2023-06-10T07:01:58;26.50;90.00
50013;DHT22;35901;48.694;9.476;2023-06-10T07:04:24;26.60;90.00
50013;DHT22;35901;48.694;9.476;2023-06-10T07:06:50;25.80;90.50
50013;DHT22;35901;48.694;9.476;2023-06-10T07:09:15;25.50;91.40
50013;DHT22;35901;48.694;9.476;2023-06-10T07:11:41;25.70;91.60
50013;DHT22;35901;48.694;9.476;2023-06-10T07:14:07;25.60;91.30
50013;DHT22;35901;48.694;9.476;2023-06-10T07:16:33;25.20;91.00
50013;DHT22;35901;48.694;9.476;2023-06-10T07:18:58;25.10;92.30
50013;DHT22;35901;48.694;9.476;2023-06-10T07:21:24;25.10;91.40
50013;DHT22;35901;48.694;9.476;2023-06-10T07:23:49;25.00;91.70
50013;DHT22;35901;48.694;9.476;2023-06-10T07:26:18;25.40;91.30
50013;DHT22;35901;48.694;9.476;2023-06-10T07:28:44;25.90;91.50
50013;DHT22;35901;48.694;9.476;2023-06-10T07:31:10;26.20;90.60
50013;DHT22;35901;48.694;9.476;2023-06-10T07:33:37;25.50;91.30
50013;DHT22;35901;48.694;9.476;2023-06-10T07:36:05;25.80;91.40
50013;DHT22;35901;48.694;9.476;2023-06-10T07:38:31;25.40;91.50
50013;DHT22;35901;48.694;9.476;2023-06-10T07:40:56;25.30;91.60
50013;DHT22;35901;48.694;9.476;2023-06-10T07:43:23;25.30;91.50
50013;DHT22;35901;48.694;9.476;2023-06-10T07:45:49;26.20;90.60
50013;DHT22;35901;48.694;9.476;2023-06-10T07:48:15;26.20;90.10
50013;DHT22;35901;48.694;9.476;2023-06-10T07:50:41;26.50;90.40
50013;DHT22;35901;48.694;9.476;2023-06-10T07:53:06;26.30;88.00
50013;DHT22;35901;48.694;9.476;2023-06-10T07:55:32;26.20;90.10
50013;DHT22;35901;48.694;9.476;2023-06-10T07:57:58;26.10;89.20
50013;DHT22;35901;48.694;9.476;2023-06-10T08:00:23;26.30;89.30
50013;DHT22;35901;48.694;9.476;2023-06-10T08:02:49;26.20;90.80
50013;DHT22;35901;48.694;9.476;2023-06-10T08:05:16;26.50;90.50
50013;DHT22;35901;48.694;9.476;2023-06-10T08:07:41;26.10;90.20
50013;DHT22;35901;48.694;9.476;2023-06-10T08:10:08;26.00;90.80
50013;DHT22;35901;48.694;9.476;2023-06-10T08:12:35;26.50;89.50
50013;DHT22;35901;48.694;9.476;2023-06-10T08:15:01;26.50;90.50
50013;DHT22;35901;48.694;9.476;2023-06-10T08:17:30;26.90;88.40
50013;DHT22;35901;48.694;9.476;2023-06-10T08:19:56;27.10;87.30
50013;DHT22;35901;48.694;9.476;2023-06-10T08:22:21;27.20;85.60
50013;DHT22;35901;48.694;9.476;2023-06-10T08:24:47;26.80;86.20
50013;DHT22;35901;48.694;9.476;2023-06-10T08:27:13;26.40;87.60
50013;DHT22;35901;48.694;9.476;2023-06-10T08:29:39;26.90;86.20
50013;DHT22;35901;48.694;9.476;2023-06-10T08:32:06;27.00;86.90
50013;DHT22;35901;48.694;9.476;2023-06-10T08:34:35;26.70;89.60
50013;DHT22;35901;48.694;9.476;2023-06-10T08:37:01;26.80;87.60
50013;DHT22;35901;48.694;9.476;2023-06-10T08:39:27;27.60;84.30
50013;DHT22;35901;48.694;9.476;2023-06-10T08:43:00;26.90;87.30
50013;DHT22;35901;48.694;9.476;2023-06-10T08:45:01;26.60;87.40
50013;DHT22;35901;48.694;9.476;2023-06-10T08:47:29;27.10;86.50
50013;DHT22;35901;48.694;9.476;2023-06-10T08:49:57;27.90;83.60
50013;DHT22;35901;48.694;9.476;2023-06-10T08:52:33;27.40;84.80
50013;DHT22;35901;48.694;9.476;2023-06-10T08:55:04;28.20;84.00
50013;DHT22;35901;48.694;9.476;2023-06-10T08:57:31;27.70;83.20
50013;DHT22;35901;48.694;9.476;2023-06-10T08:59:57;27.60;83.40
50013;DHT22;35901;48.694;9.476;2023-06-10T09:02:27;27.30;83.40
50013;DHT22;35901;48.694;9.476;2023-06-10T09:04:56;27.30;84.00
50013;DHT22;35901;48.694;9.476;2023-06-10T09:07:23;27.50;84.30
50013;DHT22;35901;48.694;9.476;2023-06-10T09:09:50;28.00;84.20
50013;DHT22;35901;48.694;9.476;2023-06-10T09:12:19;28.50;81.40
50013;DHT22;35901;48.694;9.476;2023-06-10T09:14:44;28.30;81.40
50013;DHT22;35901;48.694;9.476;2023-06-10T09:17:10;28.80;81.40
50013;DHT22;35901;48.694;9.476;2023-06-10T09:19:37;28.80;80.90
50013;DHT22;35901;48.694;9.476;2023-06-10T09:22:04;28.30;80.30
50013;DHT22;35901;48.694;9.476;2023-06-10T09:24:30;27.80;82.70
50013;DHT22;35901;48.694;9.476;2023-06-10T09:27:06;26.80;82.80
50013;DHT22;35901;48.694;9.476;2023-06-10T09:29:51;26.30;84.20
50013;DHT22;35901;48.694;9.476;2023-06-10T09:32:18;26.70;85.20
50013;DHT22;35901;48.694;9.476;2023-06-10T09:34:45;26.50;85.40
50013;DHT22;35901;48.694;9.476;2023-06-10T09:37:12;26.50;86.10
50013;DHT22;35901;48.694;9.476;2023-06-10T09:39:39;26.30;83.80
50013;DHT22;35901;48.694;9.476;2023-06-10T09:42:18;26.40;86.10
50013;DHT22;35901;48.694;9.476;2023-06-10T09:44:51;26.20;85.50
50013;DHT22;35901;48.694;9.476;2023-06-10T09:47:23;26.40;83.50
50013;DHT22;35901;48.694;9.476;2023-06-10T09:49:49;26.40;84.00
50013;DHT22;35901;48.694;9.476;2023-06-10T09:52:24;26.70;83.90
50013;DHT22;35901;48.694;9.476;2023-06-10T09:54:51;27.90;80.40
50013;DHT22;35901;48.694;9.476;2023-06-10T09:57:19;28.30;77.50
50013;DHT22;35901;48.694;9.476;2023-06-10T09:59:45;29.10;76.80
50013;DHT22;35901;48.694;9.476;2023-06-10T10:02:17;29.10;76.50
50013;DHT22;35901;48.694;9.476;2023-06-10T10:04:46;29.60;74.80
50013;DHT22;35901;48.694;9.476;2023-06-10T10:07:14;30.00;73.70
50013;DHT22;35901;48.694;9.476;2023-06-10T10:09:41;29.30;73.90
50013;DHT22;35901;48.694;9.476;2023-06-10T10:12:12;29.40;75.30
50013;DHT22;35901;48.694;9.476;2023-06-10T10:14:39;29.40;75.20
50013;DHT22;35901;48.694;9.476;2023-06-10T10:17:10;29.50;75.90
50013;DHT22;35901;48.694;9.476;2023-06-10T10:19:48;29.60;73.90
50013;DHT22;35901;48.694;9.476;2023-06-10T10:22:26;28.80;74.40
50013;DHT22;35901;48.694;9.476;2023-06-10T10:25:04;28.00;75.00
50013;DHT22;35901;48.694;9.476;2023-06-10T10:27:36;28.00;76.00
50013;DHT22;35901;48.694;9.476;2023-06-10T10:30:06;29.10;72.00
50013;DHT22;35901;48.694;9.476;2023-06-10T10:32:38;29.10;71.90
50013;DHT22;35901;48.694;9.476;2023-06-10T10:35:12;29.20;74.20
50013;DHT22;35901;48.694;9.476;2023-06-10T10:37:43;29.50;73.90
50013;DHT22;35901;48.694;9.476;2023-06-10T10:40:10;29.60;71.90
50013;DHT22;35901;48.694;9.476;2023-06-10T10:42:37;29.60;69.80
50013;DHT22;35901;48.694;9.476;2023-06-10T10:45:04;29.50;69.60
50013;DHT22;35901;48.694;9.476;2023-06-10T10:47:31;28.80;71.90
50013;DHT22;35901;48.694;9.476;2023-06-10T10:49:58;28.70;72.30
50013;DHT22;35901;48.694;9.476;2023-06-10T10:52:25;29.10;74.90
50013;DHT22;35901;48.694;9.476;2023-06-10T10:54:53;29.10;72.90
50013;DHT22;35901;48.694;9.476;2023-06-10T10:57:24;29.30;70.50
50013;DHT22;35901;48.694;9.476;2023-06-10T10:59:55;29.10;70.80
50013;DHT22;35901;48.694;9.476;2023-06-10T11:02:44;29.00;73.10
50013;DHT22;35901;48.694;9.476;2023-06-10T11:05:14;29.20;73.00
50013;DHT22;35901;48.694;9.476;2023-06-10T11:07:40;29.30;72.80
50013;DHT22;35901;48.694;9.476;2023-06-10T11:10:13;30.10;68.60
50013;DHT22;35901;48.694;9.476;2023-06-10T11:15:22;30.10;66.20
50013;DHT22;35901;48.694;9.476;2023-06-10T11:20:43;29.60;67.40
50013;DHT22;35901;48.694;9.476;2023-06-10T11:23:09;29.60;69.30
50013;DHT22;35901;48.694;9.476;2023-06-10T11:25:39;30.10;70.20
50013;DHT22;35901;48.694;9.476;2023-06-10T11:28:18;30.20;68.60
50013;DHT22;35901;48.694;9.476;2023-06-10T11:30:45;30.00;68.60
50013;DHT22;35901;48.694;9.476;2023-06-10T11:33:16;29.40;67.40
50013;DHT22;35901;48.694;9.476;2023-06-10T11:35:42;29.40;69.20
50013;DHT22;35901;48.694;9.476;2023-06-10T11:38:08;29.70;68.60
50013;DHT22;35901;48.694;9.476;2023-06-10T11:40:36;29.10;70.40
50013;DHT22;35901;48.694;9.476;2023-06-10T11:43:03;28.80;70.50
50013;DHT22;35901;48.694;9.476;2023-06-10T11:45:33;28.30;72.40
50013;DHT22;35901;48.694;9.476;2023-06-10T11:48:00;28.20;73.70
50013;DHT22;35901;48.694;9.476;2023-06-10T11:50:33;28.10;71.10
50013;DHT22;35901;48.694;9.476;2023-06-10T11:52:59;28.60;70.90
50013;DHT22;35901;48.694;9.476;2023-06-10T11:55:47;28.90;70.30
50013;DHT22;35901;48.694;9.476;2023-06-10T11:58:14;29.50;69.70
50013;DHT22;35901;48.694;9.476;2023-06-10T12:00:50;29.30;69.40
50013;DHT22;35901;48.694;9.476;2023-06-10T12:03:17;29.80;68.30
50013;DHT22;35901;48.694;9.476;2023-06-10T12:05:59;30.00;66.00
50013;DHT22;35901;48.694;9.476;2023-06-10T12:08:25;30.00;65.60
50013;DHT22;35901;48.694;9.476;2023-06-10T12:10:51;29.50;66.40
50013;DHT22;35901;48.694;9.476;2023-06-10T12:13:21;28.70;69.70
50013;DHT22;35901;48.694;9.476;2023-06-10T12:15:46;28.90;68.30
50013;DHT22;35901;48.694;9.476;2023-06-10T12:18:20;29.40;67.00
50013;DHT22;35901;48.694;9.476;2023-06-10T12:20:46;29.40;69.00
50013;DHT22;35901;48.694;9.476;2023-06-10T12:23:12;29.50;64.90
50013;DHT22;35901;48.694;9.476;2023-06-10T12:25:39;29.50;66.50
50013;DHT22;35901;48.694;9.476;2023-06-10T12:28:05;30.20;67.30
50013;DHT22;35901;48.694;9.476;2023-06-10T12:30:31;30.20;67.00
50013;DHT22;35901;48.694;9.476;2023-06-10T12:32:58;30.10;68.50
50013;DHT22;35901;48.694;9.476;2023-06-10T12:35:27;30.00;66.80
50013;DHT22;35901;48.694;9.476;2023-06-10T12:38:01;29.80;68.20
50013;DHT22;35901;48.694;9.476;2023-06-10T12:40:32;29.60;67.10
50013;DHT22;35901;48.694;9.476;2023-06-10T12:42:59;29.60;67.20
50013;DHT22;35901;48.694;9.476;2023-06-10T12:45:31;29.50;66.90
50013;DHT22;35901;48.694;9.476;2023-06-10T12:48:11;30.10;64.70
50013;DHT22;35901;48.694;9.476;2023-06-10T12:50:41;31.00;62.50
50013;DHT22;35901;48.694;9.476;2023-06-10T12:53:08;30.90;62.90
50013;DHT22;35901;48.694;9.476;2023-06-10T12:55:34;30.80;61.10
50013;DHT22;35901;48.694;9.476;2023-06-10T12:58:01;30.50;61.40
50013;DHT22;35901;48.694;9.476;2023-06-10T13:00:29;30.10;65.40
50013;DHT22;35901;48.694;9.476;2023-06-10T13:02:59;30.40;63.20
50013;DHT22;35901;48.694;9.476;2023-06-10T13:05:25;30.20;62.50
50013;DHT22;35901;48.694;9.476;2023-06-10T13:07:51;30.00;63.60
50013;DHT22;35901;48.694;9.476;2023-06-10T13:10:17;29.60;63.60
50013;DHT22;35901;48.694;9.476;2023-06-10T13:12:43;30.00;64.70
50013;DHT22;35901;48.694;9.476;2023-06-10T13:15:09;30.00;63.20
50013;DHT22;35901;48.694;9.476;2023-06-10T13:17:35;29.80;65.40
50013;DHT22;35901;48.694;9.476;2023-06-10T13:20:06;29.40;66.50
50013;DHT22;35901;48.694;9.476;2023-06-10T13:22:32;29.20;67.20
50013;DHT22;35901;48.694;9.476;2023-06-10T13:25:02;28.50;67.50
50013;DHT22;35901;48.694;9.476;2023-06-10T13:27:29;28.70;66.60
50013;DHT22;35901;48.694;9.476;2023-06-10T13:29:55;28.00;68.70
50013;DHT22;35901;48.694;9.476;2023-06-10T13:32:21;27.80;68.90
50013;DHT22;35901;48.694;9.476;2023-06-10T13:34:47;28.40;69.80
50013;DHT22;35901;48.694;9.476;2023-06-10T13:37:12;28.60;68.40
50013;DHT22;35901;48.694;9.476;2023-06-10T13:39:38;29.10;67.30
50013;DHT22;35901;48.694;9.476;2023-06-10T13:42:05;29.70;67.50
50013;DHT22;35901;48.694;9.476;2023-06-10T13:44:33;30.60;62.80
50013;DHT22;35901;48.694;9.476;2023-06-10T13:47:02;29.70;64.10
50013;DHT22;35901;48.694;9.476;2023-06-10T13:49:28;28.90;64.80
50013;DHT22;35901;48.694;9.476;2023-06-10T13:51:54;28.00;67.20
50013;DHT22;35901;48.694;9.476;2023-06-10T13:54:20;27.60;68.30
50013;DHT22;35901;48.694;9.476;2023-06-10T13:56:46;27.40;68.50
50013;DHT22;35901;48.694;9.476;2023-06-10T13:59:12;28.00;68.50
50013;DHT22;35901;48.694;9.476;2023-06-10T14:01:38;29.00;67.70
50013;DHT22;35901;48.694;9.476;2023-06-10T14:04:04;29.90;67.10
50013;DHT22;35901;48.694;9.476;2023-06-10T14:06:30;29.80;64.30
50013;DHT22;35901;48.694;9.476;2023-06-10T14:08:56;29.10;65.90
50013;DHT22;35901;48.694;9.476;2023-06-10T14:11:21;28.40;66.40
50013;DHT22;35901;48.694;9.476;2023-06-10T14:13:47;27.50;66.90
50013;DHT22;35901;48.694;9.476;2023-06-10T14:16:13;26.80;69.00
50013;DHT22;35901;48.694;9.476;2023-06-10T14:18:39;26.50;70.30
50013;DHT22;35901;48.694;9.476;2023-06-10T14:21:05;27.40;69.60
50013;DHT22;35901;48.694;9.476;2023-06-10T14:23:30;28.40;66.70
50013;DHT22;35901;48.694;9.476;2023-06-10T14:25:56;28.90;67.80
50013;DHT22;35901;48.694;9.476;2023-06-10T14:28:21;29.50;67.90
50013;DHT22;35901;48.694;9.476;2023-06-10T14:30:49;29.50;66.00
50013;DHT22;35901;48.694;9.476;2023-06-10T14:33:15;29.50;66.10
50013;DHT22;35901;48.694;9.476;2023-06-10T14:35:40;29.10;67.10
50013;DHT22;35901;48.694;9.476;2023-06-10T14:38:08;28.40;67.50
50013;DHT22;35901;48.694;9.476;2023-06-10T14:40:34;27.70;69.80
50013;DHT22;35901;48.694;9.476;2023-06-10T14:42:59;27.20;70.70
50013;DHT22;35901;48.694;9.476;2023-06-10T14:45:26;26.70;71.00
50013;DHT22;35901;48.694;9.476;2023-06-10T14:47:52;26.40;71.60
50013;DHT22;35901;48.694;9.476;2023-06-10T14:50:18;26.80;73.00
50013;DHT22;35901;48.694;9.476;2023-06-10T14:52:43;27.90;71.50
50013;DHT22;35901;48.694;9.476;2023-06-10T14:55:09;28.40;68.10
50013;DHT22;35901;48.694;9.476;2023-06-10T14:57:35;28.60;67.40
50013;DHT22;35901;48.694;9.476;2023-06-10T15:00:01;28.90;67.60
50013;DHT22;35901;48.694;9.476;2023-06-10T15:02:26;29.10;67.70
50013;DHT22;35901;48.694;9.476;2023-06-10T15:04:52;29.30;65.30
50013;DHT22;35901;48.694;9.476;2023-06-10T15:07:18;29.10;67.70
50013;DHT22;35901;48.694;9.476;2023-06-10T15:09:44;29.40;66.00
50013;DHT22;35901;48.694;9.476;2023-06-10T15:12:09;29.60;65.30
50013;DHT22;35901;48.694;9.476;2023-06-10T15:14:36;29.80;66.20
50013;DHT22;35901;48.694;9.476;2023-06-10T15:17:02;29.60;63.70
50013;DHT22;35901;48.694;9.476;2023-06-10T15:19:27;29.60;63.90
50013;DHT22;35901;48.694;9.476;2023-06-10T15:21:53;29.50;63.90
50013;DHT22;35901;48.694;9.476;2023-06-10T15:24:19;29.20;63.90
50013;DHT22;35901;48.694;9.476;2023-06-10T15:26:44;28.90;64.10
50013;DHT22;35901;48.694;9.476;2023-06-10T15:29:10;29.10;65.50
50013;DHT22;35901;48.694;9.476;2023-06-10T15:31:36;29.40;64.40
50013;DHT22;35901;48.694;9.476;2023-06-10T15:34:02;29.30;63.50
50013;DHT22;35901;48.694;9.476;2023-06-10T15:36:29;29.20;65.80
50013;DHT22;35901;48.694;9.476;2023-06-10T15:39:01;29.40;64.30
50013;DHT22;35901;48.694;9.476;2023-06-10T15:41:27;29.60;63.00